Terminal Aerodrome Forecast
Issued by NWS Tuscon, AZ

Home | Current Version | Previous Version | Text Only | Print | Product List | Glossary On
Versions: 1 2 3 4 5 6 7 8 9 10 11 12 13 14 15 16 17 18 19 20 21 22 23 24
000
FTUS45 KTWC 071120
TAFTUS
TAF
KTUS 071120Z 0712/0812 15005KT P6SM SCT150
     FM072000 28007KT P6SM SCT080 SCT120
     FM080300 33005KT P6SM SCT080 BKN120
     FM080600 16005KT P6SM SCT120=

USA.gov is the U.S. government's official web portal to all federal, state and local government web resources and services.